ヘルシンキ/ヴァンター の空港の天気 - METARとTAF

ヘルシンキ・ヴァンター国際空港 ( EFHK / HEL ) - フィンランド ヴァンター
飛行場実況気象(Metar)
観測時間02/28 02:20 EET (02/28 00:20 UTC)
風向・風速南東 5m/s
視程2000m
天気現象弱い氷霧雨 もや
全天を覆う雲 雲底高度 60m
気温0℃
湿度100%
気圧1001hPa
METAREFHK 280020Z 13010KT 2000 -FZDZ BR OVC002 00/M00 Q1001 NOSIG
過去の天気等 Google飛行場航空写真 Wunderground天気予報

過去48時間のMETAR

飛行場予報(TAF)
発表時間: 2/28 01:37 EET (2/27 23:37 UTC)
予報対象時間: 28日2時 EET ~ 1日2時 EET
風向・風速南東 6m/s
視程4,000m
天気現象弱い氷雨
全天の8割程度の雲 雲底高度 120m
28日2時 EET ~ 28日4時 EET に徐々に
視程2,000m
天気現象もや
28日4時 EET ~ 28日9時 EET に 確率 40% で一時的に
視程300m
天気現象
全天を覆う雲 雲底高度 30m
28日9時 EET から 確率 30% で
視程8,000m
全天の8割程度の雲 雲底高度 460m
28日11時 EET ~ 28日13時 EET に徐々に
視程10km以上
全天の8割程度の雲 雲底高度 460m
TAF EFHK 272337Z 2800/2824 14012KT 4000 -FZRA BKN004
BECMG 2800/2802 2000 BR
PROB40 TEMPO 2802/2807 0300 FG OVC001
PROB30 2807/2809 8000 BKN015
BECMG 2809/2811 9999 BKN015